logo
Search for airport 
image banner adimage banner adimage banner ad
image banner ad

WMKD - Kuantan

Located in Kuantan, Malaysia

ICAO - WMKD, IATA - KUA

Data provided by Airmate  

General information

Coordinates: N3°46'11" E103°12'34"
Elevation is 55 feet MSL.
 
View others Airports in Pahang

Operational data

Special qualification required
Current time UTC:
Current local time:
Weather
METAR: WMKD 261100Z VRB01KT 9999 FEW017CB 28/25 Q1007 NOSIG
View NOTAMs / SUP AIP / TFR affecting this airport [VIEW]
Communications frequencies: [VIEW]

Runways:

RWY identifierQFULength (ft)Width (ft)SurfaceLDA (ft)
18183°8999148ASP
368999148ASP

Airport contact information

Address: Kuantan Malaysia

Satellite view of WMKD